Time;durP1;ratioP1;P1;durP2;ratioP2;P2;SDS_P1;SDS_P2;PMS_P1;PMS_P2;Temp;Humidity;BMP_temperature;BMP_pressure;BME280_temperature;BME280_humidity;BME280_pressure;Samples;Min_cycle;Max_cycle;Signal;HPM_P1;HPM_P2
2023/01/06 00:02:23;;;;;;;30.08;11.65;;;10.60;99.90;;;;;;5053539;28;20044;-89
2023/01/06 00:04:48;;;;;;;32.78;11.45;;;10.60;99.90;;;;;;5053933;28;20049;-89
2023/01/06 00:07:14;;;;;;;36.50;12.10;;;10.60;99.90;;;;;;5053466;28;20533;-89
2023/01/06 00:09:40;;;;;;;34.65;11.18;;;10.70;99.90;;;;;;5054026;28;20124;-89
2023/01/06 00:12:07;;;;;;;34.67;10.82;;;10.60;99.90;;;;;;5052908;28;20397;-90
2023/01/06 00:14:32;;;;;;;31.15;11.05;;;10.60;99.90;;;;;;5055004;28;20045;-89
2023/01/06 00:16:58;;;;;;;36.22;10.95;;;10.60;99.90;;;;;;5023889;28;20048;-89
2023/01/06 00:19:24;;;;;;;33.25;10.32;;;10.60;99.90;;;;;;5034076;28;20532;-89
2023/01/06 00:21:49;;;;;;;30.30;10.73;;;10.60;99.90;;;;;;5017136;28;20060;-89
2023/01/06 00:24:15;;;;;;;39.50;10.43;;;10.60;99.90;;;;;;5015615;28;20143;-89
2023/01/06 00:26:40;;;;;;;27.30;10.07;;;10.60;99.90;;;;;;5034577;28;20116;-89
2023/01/06 00:29:09;;;;;;;33.95;10.30;;;10.60;99.90;;;;;;5034416;28;20048;-89
2023/01/06 00:31:36;;;;;;;30.17;9.93;;;10.60;99.90;;;;;;5033561;28;21520;-89
2023/01/06 00:34:05;;;;;;;33.72;9.52;;;10.60;99.90;;;;;;5016930;28;20052;-89
2023/01/06 00:36:31;;;;;;;31.15;9.88;;;10.60;99.90;;;;;;5016217;28;20107;-89
2023/01/06 00:38:56;;;;;;;31.70;10.23;;;10.60;99.90;;;;;;5015671;28;20080;-89
2023/01/06 00:44:07;;;;;;;28.15;10.20;;;10.60;99.90;;;;;;5016095;28;20045;-88
2023/01/06 00:46:33;;;;;;;29.80;9.20;;;10.60;99.90;;;;;;5015290;28;20045;-88
2023/01/06 00:49:00;;;;;;;24.83;9.07;;;10.60;99.90;;;;;;5033446;28;20087;-89
2023/01/06 00:51:26;;;;;;;24.13;8.77;;;10.60;99.90;;;;;;5016230;28;20064;-89
2023/01/06 00:53:52;;;;;;;22.45;8.80;;;10.60;99.90;;;;;;5015643;28;20535;-89
2023/01/06 00:56:18;;;;;;;26.60;9.32;;;10.60;99.90;;;;;;5034017;28;20045;-88
2023/01/06 00:58:44;;;;;;;24.42;9.20;;;10.60;99.90;;;;;;5015837;28;20049;-89
2023/01/06 01:01:10;;;;;;;23.90;9.07;;;10.60;99.90;;;;;;5014989;28;20115;-89
2023/01/06 01:03:37;;;;;;;27.15;8.38;;;10.60;99.90;;;;;;5015892;28;20473;-88
2023/01/06 01:06:06;;;;;;;19.98;7.55;;;10.60;99.90;;;;;;5033266;28;20085;-89
2023/01/06 01:08:32;;;;;;;17.42;6.90;;;10.60;99.90;;;;;;5033427;28;20038;-90
2023/01/06 01:12:08;;;;;;;14.32;7.15;;;10.70;99.90;;;;;;5016280;28;20053;-89
2023/01/06 01:13:56;;;;;;;19.88;7.03;;;10.60;99.90;;;;;;5014780;28;20489;-89
2023/01/06 01:16:22;;;;;;;18.60;6.70;;;10.60;99.90;;;;;;5015859;28;20057;-89
2023/01/06 01:18:48;;;;;;;19.20;6.70;;;10.70;99.90;;;;;;5033451;28;20038;-89
2023/01/06 01:21:13;;;;;;;15.40;6.53;;;10.60;99.90;;;;;;5014964;28;20103;-88
2023/01/06 01:23:39;;;;;;;20.13;7.65;;;10.70;99.90;;;;;;5033568;28;20037;-89
2023/01/06 01:26:04;;;;;;;15.32;7.10;;;10.70;99.90;;;;;;5033392;28;20404;-88
2023/01/06 01:28:31;;;;;;;17.42;7.70;;;10.60;99.90;;;;;;5031609;28;20041;-88
2023/01/06 01:31:01;;;;;;;15.88;7.45;;;10.60;99.90;;;;;;5016110;28;20100;-89
2023/01/06 01:33:29;;;;;;;16.55;8.15;;;10.70;99.90;;;;;;5033357;28;20149;-89
2023/01/06 01:35:54;;;;;;;17.02;8.18;;;10.70;99.90;;;;;;5014864;28;20045;-89
2023/01/06 01:38:20;;;;;;;16.60;7.20;;;10.60;99.90;;;;;;5015581;28;20049;-89
2023/01/06 01:40:47;;;;;;;16.38;7.65;;;10.70;99.90;;;;;;5033323;28;20041;-89
2023/01/06 01:43:13;;;;;;;18.83;8.15;;;10.60;99.90;;;;;;5032223;28;20041;-89
2023/01/06 01:45:40;;;;;;;19.60;8.32;;;10.60;99.90;;;;;;5015322;28;20053;-88
2023/01/06 01:48:21;;;;;;;15.80;8.18;;;10.60;99.90;;;;;;5014230;28;20045;-88
2023/01/06 01:50:52;;;;;;;14.75;7.80;;;10.60;99.90;;;;;;5033406;28;20045;-88
2023/01/06 01:53:31;;;;;;;20.58;8.15;;;10.60;99.90;;;;;;5032446;28;20072;-89
2023/01/06 01:56:00;;;;;;;15.57;8.05;;;10.60;99.90;;;;;;5014863;28;20037;-88
2023/01/06 01:58:52;;;;;;;15.82;7.97;;;10.60;99.90;;;;;;5032836;28;20037;-89
2023/01/06 02:01:18;;;;;;;14.70;7.78;;;10.60;99.90;;;;;;5015004;28;20048;-88
2023/01/06 02:03:44;;;;;;;18.60;8.02;;;10.60;99.90;;;;;;5031658;28;20124;-89
2023/01/06 02:06:14;;;;;;;16.20;7.50;;;10.60;99.90;;;;;;5014675;28;20509;-88
2023/01/06 02:08:44;;;;;;;17.63;7.72;;;10.60;99.90;;;;;;5015305;28;20045;-89
2023/01/06 02:11:10;;;;;;;16.05;7.22;;;10.60;99.90;;;;;;5032086;28;20103;-89
2023/01/06 02:13:39;;;;;;;14.10;7.28;;;10.60;99.90;;;;;;5032789;28;20041;-89
2023/01/06 02:16:16;;;;;;;14.02;6.60;;;10.60;99.90;;;;;;5041379;28;20067;-88
2023/01/06 02:19:23;;;;;;;15.93;6.57;;;10.60;99.90;;;;;;5034565;28;20463;-89
2023/01/06 02:22:11;;;;;;;12.05;5.90;;;10.60;99.90;;;;;;4982388;28;20057;-88
2023/01/06 02:24:55;;;;;;;17.00;5.72;;;10.60;99.90;;;;;;5050296;28;20037;-88
2023/01/06 02:27:43;;;;;;;14.20;5.80;;;10.60;99.90;;;;;;5052625;28;20080;-88
2023/01/06 02:30:43;;;;;;;14.45;5.15;;;10.60;99.90;;;;;;5051383;28;20045;-88
2023/01/06 02:33:30;;;;;;;14.63;5.90;;;10.60;99.90;;;;;;4997639;28;20084;-88
2023/01/06 02:36:25;;;;;;;15.27;5.45;;;10.60;99.90;;;;;;5034853;28;20045;-88
2023/01/06 02:39:19;;;;;;;12.07;5.82;;;10.60;99.90;;;;;;5029563;28;20500;-88
2023/01/06 02:42:03;;;;;;;13.55;5.38;;;10.50;99.90;;;;;;5035144;28;20048;-88
2023/01/06 02:44:43;;;;;;;15.65;5.60;;;10.50;99.90;;;;;;5050915;28;20052;-89
2023/01/06 02:47:18;;;;;;;11.43;5.07;;;10.50;99.90;;;;;;5034517;28;20045;-88
2023/01/06 02:49:59;;;;;;;13.40;4.82;;;10.50;99.90;;;;;;5034220;28;20045;-89
2023/01/06 02:52:38;;;;;;;11.80;4.97;;;10.50;99.90;;;;;;5051201;28;20111;-89
2023/01/06 02:55:21;;;;;;;12.23;4.90;;;10.50;99.90;;;;;;5052491;28;20123;-88
2023/01/06 02:58:09;;;;;;;10.13;4.13;;;10.50;99.90;;;;;;5052413;28;20048;-88
2023/01/06 03:00:41;;;;;;;16.58;5.05;;;10.50;99.90;;;;;;5051961;28;20055;-89
2023/01/06 03:03:14;;;;;;;11.48;4.85;;;10.50;99.90;;;;;;5033378;28;20392;-89
2023/01/06 03:05:42;;;;;;;11.77;5.18;;;10.50;99.90;;;;;;5032461;28;20091;-89
2023/01/06 03:08:12;;;;;;;13.73;5.18;;;10.50;99.90;;;;;;5033966;28;20052;-89
2023/01/06 03:10:42;;;;;;;9.63;5.00;;;10.50;99.90;;;;;;5034577;28;20399;-89
2023/01/06 03:13:27;;;;;;;13.52;5.22;;;10.50;99.90;;;;;;5035315;28;20506;-89
2023/01/06 03:15:52;;;;;;;15.20;5.60;;;10.50;99.90;;;;;;5041577;28;20053;-89
2023/01/06 03:18:19;;;;;;;12.10;5.43;;;10.50;99.90;;;;;;5055642;28;20720;-89
2023/01/06 03:20:48;;;;;;;10.32;5.80;;;10.50;99.90;;;;;;5053649;28;20417;-90
2023/01/06 03:23:14;;;;;;;10.13;5.18;;;10.50;99.90;;;;;;5055144;28;20122;-88
2023/01/06 03:25:39;;;;;;;10.88;5.28;;;10.50;99.90;;;;;;5052112;28;20080;-89
2023/01/06 03:28:05;;;;;;;11.65;5.20;;;10.50;99.90;;;;;;5053672;28;20512;-89
2023/01/06 03:30:51;;;;;;;10.77;5.18;;;10.50;99.90;;;;;;5054221;28;20056;-89
2023/01/06 03:33:27;;;;;;;11.32;5.63;;;10.50;99.90;;;;;;5054673;28;20091;-89
2023/01/06 03:36:20;;;;;;;8.95;5.38;;;10.50;99.90;;;;;;5054999;28;20045;-87
2023/01/06 03:39:05;;;;;;;12.50;5.73;;;10.50;99.90;;;;;;5055101;28;20037;-89
2023/01/06 03:44:45;;;;;;;11.63;5.20;;;10.50;99.90;;;;;;5055075;28;20036;-89
2023/01/06 03:47:19;;;;;;;11.15;6.00;;;10.50;99.90;;;;;;5053393;28;20037;-89
2023/01/06 03:50:00;;;;;;;13.88;5.75;;;10.50;99.90;;;;;;5054556;28;20037;-89
2023/01/06 03:52:33;;;;;;;13.35;5.38;;;10.50;99.90;;;;;;5054034;28;20425;-89
2023/01/06 03:55:09;;;;;;;10.95;5.65;;;10.50;99.90;;;;;;5053470;28;20076;-88
2023/01/06 03:57:38;;;;;;;11.43;5.60;;;10.50;99.90;;;;;;5054434;28;20040;-89
2023/01/06 04:00:15;;;;;;;10.43;5.57;;;10.50;99.90;;;;;;5053177;28;20049;-89
2023/01/06 04:02:41;;;;;;;12.00;5.60;;;10.50;99.90;;;;;;5054741;28;20041;-88
2023/01/06 04:05:13;;;;;;;9.82;5.63;;;10.50;99.90;;;;;;5054966;28;20390;-89
2023/01/06 04:07:40;;;;;;;10.55;5.45;;;10.50;99.90;;;;;;5053517;28;20593;-88
2023/01/06 04:10:07;;;;;;;11.05;5.55;;;10.50;99.90;;;;;;5052573;28;20509;-89
2023/01/06 04:12:39;;;;;;;11.18;5.20;;;10.50;99.90;;;;;;5054148;28;20457;-89
2023/01/06 04:15:12;;;;;;;11.27;5.00;;;10.50;99.90;;;;;;5053333;28;20052;-89
2023/01/06 04:17:38;;;;;;;;;;;10.50;99.90;;;;;;5054741;28;20049;-89
2023/01/06 04:20:05;;;;;;;8.60;4.72;;;10.40;99.90;;;;;;5036773;28;19974;-89
2023/01/06 04:22:31;;;;;;;8.13;4.30;;;10.50;99.90;;;;;;5054458;28;20064;-89
2023/01/06 04:24:56;;;;;;;8.95;4.60;;;10.50;99.90;;;;;;5035813;28;20481;-89
2023/01/06 04:27:22;;;;;;;8.20;4.38;;;10.50;99.90;;;;;;5054127;28;20033;-89
2023/01/06 04:29:47;;;;;;;9.55;4.05;;;10.50;99.90;;;;;;5034994;28;20511;-87
2023/01/06 04:32:13;;;;;;;9.75;3.38;;;10.50;99.90;;;;;;5054549;28;20033;-90
2023/01/06 04:34:39;;;;;;;9.55;3.40;;;10.50;99.90;;;;;;5054439;28;20053;-89
2023/01/06 04:37:04;;;;;;;9.15;3.30;;;10.50;99.90;;;;;;5053808;28;20123;-90
2023/01/06 04:39:30;;;;;;;7.40;3.13;;;10.50;99.90;;;;;;5036390;28;20455;-90
2023/01/06 04:41:56;;;;;;;8.55;3.80;;;10.50;99.90;;;;;;5054170;28;20527;-89
2023/01/06 04:44:21;;;;;;;9.77;3.92;;;10.50;99.90;;;;;;5052438;28;20029;-88
2023/01/06 04:46:47;;;;;;;5.60;2.53;;;10.50;99.90;;;;;;5054008;28;20456;-87
2023/01/06 04:49:12;;;;;;;10.15;3.40;;;10.50;99.90;;;;;;5036164;28;20041;-87
2023/01/06 04:51:38;;;;;;;7.35;3.67;;;10.50;99.90;;;;;;5053371;28;20420;-87
2023/01/06 04:54:04;;;;;;;6.50;2.78;;;10.50;99.90;;;;;;5053666;28;20048;-87
2023/01/06 04:56:29;;;;;;;7.72;3.22;;;10.50;99.90;;;;;;5035814;28;20114;-88
2023/01/06 04:58:56;;;;;;;7.00;3.55;;;10.50;99.90;;;;;;5053426;28;20048;-88
2023/01/06 05:01:22;;;;;;;6.68;3.30;;;10.50;99.90;;;;;;5036368;28;20493;-89
2023/01/06 05:03:48;;;;;;;7.05;3.22;;;10.50;99.90;;;;;;5035308;28;20033;-89
2023/01/06 05:06:15;;;;;;;7.18;3.28;;;10.50;99.90;;;;;;5051898;28;20393;-88
2023/01/06 05:08:42;;;;;;;8.32;3.35;;;10.50;99.90;;;;;;5035904;28;20033;-88
2023/01/06 05:11:11;;;;;;;7.68;3.95;;;10.50;99.90;;;;;;5035533;28;20048;-89
2023/01/06 05:13:37;;;;;;;7.90;4.18;;;10.50;99.90;;;;;;5034880;28;20036;-91
2023/01/06 05:16:08;;;;;;;8.38;4.00;;;10.50;99.90;;;;;;5053728;28;20053;-89
2023/01/06 05:18:34;;;;;;;8.52;4.30;;;10.50;99.90;;;;;;5035955;28;20059;-87
2023/01/06 05:20:59;;;;;;;7.28;3.78;;;10.50;99.90;;;;;;5034888;28;20053;-87
2023/01/06 05:23:25;;;;;;;6.45;4.07;;;10.50;99.90;;;;;;5045177;28;20441;-89
2023/01/06 05:25:51;;;;;;;6.85;4.18;;;10.50;99.90;;;;;;5053365;28;20155;-92
2023/01/06 05:28:17;;;;;;;7.47;4.15;;;10.50;99.90;;;;;;5051790;28;20055;-89
2023/01/06 05:33:32;;;;;;;11.38;4.45;;;10.60;99.90;;;;;;5036745;28;20147;-96
2023/01/06 05:36:15;;;;;;;9.38;4.30;;;10.50;99.90;;;;;;5037828;28;20053;-96
2023/01/06 05:38:44;;;;;;;9.98;3.95;;;10.60;99.90;;;;;;5057805;28;20033;-94
2023/01/06 05:47:10;;;;;;;10.40;3.63;;;10.50;99.90;;;;;;4951702;29;20047;-87
2023/01/06 05:49:36;;;;;;;9.23;3.60;;;10.50;99.90;;;;;;4954064;29;20039;-87
2023/01/06 05:52:01;;;;;;;7.68;3.40;;;10.50;99.90;;;;;;4955083;29;20047;-88
2023/01/06 05:54:27;;;;;;;10.15;3.80;;;10.50;99.90;;;;;;4943391;29;20081;-87
2023/01/06 05:56:52;;;;;;;8.35;3.55;;;10.60;99.90;;;;;;4937758;29;20047;-87
2023/01/06 05:59:18;;;;;;;7.22;3.80;;;10.50;99.90;;;;;;4952537;29;20043;-88
2023/01/06 06:01:44;;;;;;;7.47;3.60;;;10.50;99.90;;;;;;4954380;29;20047;-87
2023/01/06 06:04:11;;;;;;;7.75;3.60;;;10.50;99.90;;;;;;4954190;29;20039;-87
2023/01/06 06:06:36;;;;;;;7.65;3.58;;;10.50;99.90;;;;;;4953831;29;20047;-87
2023/01/06 06:09:03;;;;;;;12.38;3.78;;;10.50;99.90;;;;;;4953163;29;20050;-87
2023/01/06 06:11:29;;;;;;;7.82;4.18;;;10.50;99.90;;;;;;4951584;29;20062;-87
2023/01/06 06:13:55;;;;;;;8.23;3.92;;;10.50;99.90;;;;;;4954734;29;20408;-87
2023/01/06 06:16:23;;;;;;;9.00;4.18;;;10.50;99.90;;;;;;4936373;29;20059;-86
2023/01/06 06:18:51;;;;;;;8.55;4.57;;;10.50;99.90;;;;;;4953558;29;20051;-87
2023/01/06 06:21:19;;;;;;;7.78;3.90;;;10.50;99.90;;;;;;4953534;29;20054;-86
2023/01/06 06:23:45;;;;;;;8.20;4.32;;;10.50;99.90;;;;;;4954642;29;20065;-87
2023/01/06 06:26:11;;;;;;;8.80;4.55;;;10.50;99.90;;;;;;4950045;29;20495;-87
2023/01/06 06:28:38;;;;;;;6.93;4.30;;;10.50;99.90;;;;;;4954732;29;20134;-87
2023/01/06 06:31:09;;;;;;;10.60;4.68;;;10.50;99.90;;;;;;4954230;29;20051;-86
2023/01/06 06:33:35;;;;;;;9.32;4.57;;;10.40;99.90;;;;;;4953994;29;20039;-87
2023/01/06 06:36:02;;;;;;;9.65;5.30;;;10.40;99.90;;;;;;4953851;29;20070;-86
2023/01/06 06:38:28;;;;;;;7.72;4.70;;;10.40;99.90;;;;;;4954264;29;20124;-87
2023/01/06 06:40:54;;;;;;;7.78;4.90;;;10.40;99.90;;;;;;4954829;29;20432;-87
2023/01/06 06:43:20;;;;;;;9.65;5.03;;;10.40;99.90;;;;;;4954231;29;20043;-87
2023/01/06 06:45:46;;;;;;;10.07;5.03;;;10.40;99.90;;;;;;4953090;28;20408;-86
2023/01/06 06:48:13;;;;;;;7.57;5.28;;;10.40;99.90;;;;;;4956864;29;20499;-88
2023/01/06 06:50:39;;;;;;;6.63;5.32;;;10.40;99.90;;;;;;4958922;29;20384;-87
2023/01/06 06:53:05;;;;;;;9.90;5.53;;;10.40;99.90;;;;;;4959305;29;20075;-87
2023/01/06 06:55:32;;;;;;;9.43;4.93;;;10.40;99.90;;;;;;4956873;29;20114;-87
2023/01/06 06:57:57;;;;;;;7.97;5.30;;;10.40;99.90;;;;;;4957182;29;20403;-86
2023/01/06 07:00:23;;;;;;;7.07;5.28;;;10.40;99.90;;;;;;4958363;28;20043;-86
2023/01/06 07:02:49;;;;;;;8.45;5.15;;;10.40;99.90;;;;;;4957427;29;20050;-86
2023/01/06 07:05:15;;;;;;;11.20;5.80;;;10.40;99.90;;;;;;4941335;29;20043;-85
2023/01/06 07:07:41;;;;;;;6.65;5.28;;;10.40;99.90;;;;;;4958239;29;20063;-87
2023/01/06 07:10:07;;;;;;;7.97;5.40;;;10.40;99.90;;;;;;4957961;29;20047;-87
2023/01/06 07:12:33;;;;;;;8.10;4.80;;;10.40;99.90;;;;;;4956115;29;20043;-87
2023/01/06 07:14:58;;;;;;;6.93;4.25;;;10.40;99.90;;;;;;4958520;29;20106;-87
2023/01/06 07:17:28;;;;;;;5.85;4.00;;;10.40;99.90;;;;;;4958486;29;20063;-87
2023/01/06 07:19:53;;;;;;;4.80;3.53;;;10.40;99.90;;;;;;4957364;29;20043;-87
2023/01/06 07:22:19;;;;;;;6.65;3.40;;;10.40;99.90;;;;;;4955995;29;20523;-87
2023/01/06 07:24:45;;;;;;;6.90;3.50;;;10.40;99.90;;;;;;4956614;29;20039;-86
2023/01/06 07:27:10;;;;;;;8.57;3.65;;;10.30;99.90;;;;;;4956743;29;20040;-85
2023/01/06 07:29:36;;;;;;;5.57;3.10;;;10.30;99.90;;;;;;4955702;29;20047;-86
2023/01/06 07:32:01;;;;;;;5.00;3.00;;;10.40;99.90;;;;;;4958868;29;20131;-87
2023/01/06 07:34:27;;;;;;;6.30;3.30;;;10.40;99.90;;;;;;4956002;28;20043;-86
2023/01/06 07:36:53;;;;;;;5.68;3.17;;;10.40;99.90;;;;;;4956826;29;20047;-86
2023/01/06 07:39:18;;;;;;;5.57;3.45;;;10.40;99.90;;;;;;4956264;29;20069;-86
2023/01/06 07:41:44;;;;;;;4.88;2.90;;;10.40;99.90;;;;;;4956130;29;20102;-86
2023/01/06 07:44:09;;;;;;;6.63;2.50;;;10.40;99.90;;;;;;4955704;29;20538;-86
2023/01/06 07:46:35;;;;;;;3.55;2.00;;;10.40;99.90;;;;;;4955688;29;20055;-86
2023/01/06 07:49:01;;;;;;;4.30;2.08;;;10.40;99.90;;;;;;4956691;29;20492;-85
2023/01/06 07:51:26;;;;;;;4.05;2.03;;;10.40;99.90;;;;;;4957163;28;20114;-85
2023/01/06 07:53:52;;;;;;;4.30;1.73;;;10.40;99.90;;;;;;4956620;29;20116;-86
2023/01/06 07:56:17;;;;;;;5.30;1.77;;;10.40;99.90;;;;;;4956593;29;20035;-86
2023/01/06 07:58:43;;;;;;;6.55;1.80;;;10.40;99.90;;;;;;4954292;28;20040;-86
2023/01/06 08:01:08;;;;;;;6.10;1.60;;;10.40;99.90;;;;;;4955322;29;20419;-85
2023/01/06 08:03:34;;;;;;;6.18;1.50;;;10.40;99.90;;;;;;4957267;29;20079;-85
2023/01/06 08:06:05;;;;;;;8.25;1.90;;;10.30;99.90;;;;;;4957057;29;20043;-85
2023/01/06 08:08:33;;;;;;;4.68;1.40;;;10.30;99.90;;;;;;4955028;29;20054;-85
2023/01/06 08:10:59;;;;;;;6.82;1.70;;;10.30;99.90;;;;;;4955587;29;20130;-87
2023/01/06 08:13:25;;;;;;;6.57;1.60;;;10.20;99.90;;;;;;4956640;29;20460;-88
2023/01/06 08:15:51;;;;;;;7.00;1.63;;;10.20;99.90;;;;;;4956805;29;20051;-89
2023/01/06 08:18:16;;;;;;;8.52;1.52;;;10.20;99.90;;;;;;4955852;29;20043;-88
2023/01/06 08:20:42;;;;;;;6.90;1.50;;;10.20;99.90;;;;;;4957244;29;20047;-89
2023/01/06 08:23:08;;;;;;;6.07;1.33;;;10.10;99.90;;;;;;4954314;29;20095;-90
2023/01/06 08:25:33;;;;;;;7.30;1.70;;;10.10;99.90;;;;;;4956179;29;20467;-88
2023/01/06 08:27:59;;;;;;;5.80;1.42;;;10.00;99.90;;;;;;4956582;29;20523;-88
2023/01/06 08:30:25;;;;;;;6.10;1.60;;;10.00;99.90;;;;;;4954854;29;20049;-89
2023/01/06 08:32:50;;;;;;;4.47;1.00;;;10.00;99.90;;;;;;4955778;29;20054;-89
2023/01/06 08:35:16;;;;;;;5.10;1.10;;;9.90;99.90;;;;;;4955349;29;20050;-88
2023/01/06 08:37:41;;;;;;;6.22;1.10;;;9.90;99.90;;;;;;4955405;29;20436;-89
2023/01/06 08:40:08;;;;;;;5.70;1.10;;;9.80;99.90;;;;;;4955318;29;20047;-89
2023/01/06 08:42:33;;;;;;;3.35;1.00;;;9.80;99.90;;;;;;4955969;29;20130;-89
2023/01/06 08:44:59;;;;;;;5.43;1.00;;;9.80;99.90;;;;;;4954845;29;20151;-88
2023/01/06 08:47:25;;;;;;;6.07;1.05;;;9.80;99.90;;;;;;4955383;29;20054;-88
2023/01/06 08:49:50;;;;;;;6.82;1.13;;;9.70;99.90;;;;;;4956629;29;20062;-88
2023/01/06 08:52:16;;;;;;;6.03;1.50;;;9.70;99.90;;;;;;4954937;29;20094;-88
2023/01/06 08:54:41;;;;;;;7.10;1.27;;;9.70;99.90;;;;;;4955495;29;20103;-88
2023/01/06 08:57:08;;;;;;;7.35;1.10;;;9.70;99.90;;;;;;4953922;29;20047;-89
2023/01/06 08:59:33;;;;;;;5.43;0.90;;;9.60;99.90;;;;;;4946523;29;20143;-89
2023/01/06 09:02:00;;;;;;;6.88;1.00;;;9.60;99.90;;;;;;4955207;29;20492;-88
2023/01/06 09:04:25;;;;;;;6.43;1.23;;;9.60;99.90;;;;;;4954119;29;20891;-88
2023/01/06 09:06:51;;;;;;;9.82;1.20;;;9.60;99.90;;;;;;4955995;29;20130;-88
2023/01/06 09:09:17;;;;;;;10.35;1.38;;;9.50;99.90;;;;;;4955567;28;20036;-87
2023/01/06 09:11:44;;;;;;;7.65;1.13;;;9.50;99.90;;;;;;4954281;29;20046;-87
2023/01/06 09:14:12;;;;;;;9.10;1.20;;;9.50;99.90;;;;;;4953780;29;20058;-88
2023/01/06 09:16:39;;;;;;;8.18;1.33;;;9.50;99.90;;;;;;4957332;28;20050;-89
2023/01/06 09:19:04;;;;;;;9.00;1.10;;;9.50;99.90;;;;;;4957041;28;20045;-90
2023/01/06 09:21:30;;;;;;;7.80;1.38;;;9.40;99.90;;;;;;4955146;28;20427;-88
2023/01/06 09:23:56;;;;;;;8.60;1.40;;;9.40;99.90;;;;;;4956025;29;20039;-88
2023/01/06 09:26:22;;;;;;;9.15;1.33;;;9.40;99.90;;;;;;4937944;29;20090;-87
2023/01/06 09:28:47;;;;;;;7.85;1.50;;;9.40;99.90;;;;;;4938956;29;20090;-88
2023/01/06 09:31:13;;;;;;;10.50;1.20;;;9.40;99.90;;;;;;4955715;29;20488;-89
2023/01/06 09:33:39;;;;;;;8.02;1.40;;;9.40;99.90;;;;;;4955309;29;20134;-88
2023/01/06 09:36:05;;;;;;;8.40;1.23;;;9.40;99.90;;;;;;4938721;29;20043;-89
2023/01/06 09:38:34;;;;;;;10.82;1.30;;;9.40;99.90;;;;;;4945865;29;20051;-90
2023/01/06 09:41:11;;;;;;;7.65;1.40;;;9.40;99.90;;;;;;4937511;29;20073;-89
2023/01/06 09:43:46;;;;;;;8.45;1.23;;;9.40;99.90;;;;;;4955795;29;20043;-89
2023/01/06 09:46:18;;;;;;;11.10;1.30;;;9.40;99.90;;;;;;4954853;29;20063;-88
2023/01/06 09:49:24;;;;;;;8.50;1.40;;;9.40;99.90;;;;;;4955687;29;20036;-89
2023/01/06 09:51:53;;;;;;;9.20;1.30;;;9.40;99.90;;;;;;4951884;29;20063;-88
2023/01/06 09:54:39;;;;;;;7.95;1.20;;;9.40;99.90;;;;;;4953130;29;20035;-88
2023/01/06 09:57:19;;;;;;;8.75;1.38;;;9.30;99.90;;;;;;4953998;29;20043;-88
2023/01/06 09:59:57;;;;;;;11.07;1.25;;;9.30;99.90;;;;;;4955166;29;20047;-88
2023/01/06 10:02:57;;;;;;;10.13;1.42;;;9.40;99.90;;;;;;4954457;29;20051;-88
2023/01/06 10:05:35;;;;;;;8.98;1.02;;;9.40;99.90;;;;;;4945205;29;20384;-88
2023/01/06 10:08:24;;;;;;;10.65;1.40;;;9.30;99.90;;;;;;4954002;29;20431;-88
2023/01/06 10:11:09;;;;;;;9.55;1.50;;;9.40;99.90;;;;;;4954103;29;20054;-91
2023/01/06 10:13:55;;;;;;;7.68;1.40;;;9.30;99.90;;;;;;4955880;29;20050;-88
2023/01/06 10:16:28;;;;;;;13.18;1.60;;;9.40;99.90;;;;;;4954666;29;20054;-92
2023/01/06 10:19:04;;;;;;;15.30;1.77;;;9.40;99.90;;;;;;4954884;29;20062;-91
2023/01/06 10:21:29;;;;;;;10.70;1.33;;;9.40;99.90;;;;;;4936583;29;20546;-87
2023/01/06 10:24:32;;;;;;;13.25;1.35;;;9.40;99.90;;;;;;4955200;29;20047;-90
2023/01/06 10:27:13;;;;;;;12.60;1.38;;;9.40;99.90;;;;;;4953873;29;20049;-89
2023/01/06 10:29:40;;;;;;;10.70;1.30;;;9.50;99.90;;;;;;4953232;29;20054;-89
2023/01/06 10:32:14;;;;;;;10.48;1.33;;;9.40;99.90;;;;;;4953863;29;20082;-88
2023/01/06 10:34:40;;;;;;;12.00;1.45;;;9.50;99.90;;;;;;4951130;29;20082;-88
2023/01/06 10:37:09;;;;;;;12.05;1.30;;;9.50;99.90;;;;;;4952531;29;20126;-88
2023/01/06 10:39:36;;;;;;;15.77;1.65;;;9.50;99.90;;;;;;4954996;29;20480;-88
2023/01/06 10:44:53;;;;;;;17.65;1.80;;;9.50;99.90;;;;;;4954343;29;20075;-88
2023/01/06 10:47:30;;;;;;;13.82;1.98;;;9.60;99.90;;;;;;4954927;29;20091;-89
2023/01/06 10:49:59;;;;;;;15.13;1.80;;;9.60;99.90;;;;;;4953432;29;20078;-89
2023/01/06 10:52:26;;;;;;;11.35;2.00;;;9.60;99.90;;;;;;4956285;28;20121;-89
2023/01/06 10:54:57;;;;;;;11.18;1.85;;;9.70;99.90;;;;;;4957223;28;20483;-88
2023/01/06 10:57:31;;;;;;;15.35;1.80;;;9.70;99.90;;;;;;4952473;29;20122;-88
2023/01/06 11:00:21;;;;;;;13.15;1.83;;;9.70;99.90;;;;;;4951413;29;20043;-89
2023/01/06 11:03:01;;;;;;;12.65;1.63;;;9.70;99.90;;;;;;4955172;29;20054;-88
2023/01/06 11:05:29;;;;;;;10.65;1.80;;;9.80;99.90;;;;;;4936879;29;20182;-90
2023/01/06 11:07:59;;;;;;;11.38;1.50;;;9.80;99.90;;;;;;4937645;29;20043;-90
2023/01/06 11:10:45;;;;;;;9.13;1.50;;;9.80;99.90;;;;;;4937200;29;20047;-89
2023/01/06 11:13:33;;;;;;;11.95;1.38;;;9.80;99.90;;;;;;4937432;29;20102;-88
2023/01/06 11:16:02;;;;;;;11.75;1.50;;;9.80;99.90;;;;;;4954826;29;20170;-91
2023/01/06 11:18:30;;;;;;;11.63;1.60;;;9.90;99.90;;;;;;4943706;29;20054;-90
2023/01/06 11:21:15;;;;;;;14.27;1.85;;;9.90;99.90;;;;;;4955073;29;20047;-91
2023/01/06 11:23:43;;;;;;;18.42;2.20;;;9.90;99.90;;;;;;4950308;29;20043;-91
2023/01/06 11:26:11;;;;;;;12.15;1.60;;;9.90;99.90;;;;;;4953345;29;20075;-95
2023/01/06 11:28:43;;;;;;;14.57;1.83;;;9.90;99.90;;;;;;4956837;29;20043;-95
2023/01/06 11:31:18;;;;;;;9.32;1.40;;;10.00;99.90;;;;;;4955363;29;20055;-94
2023/01/06 11:34:02;;;;;;;11.77;1.73;;;10.00;99.90;;;;;;4956573;28;20043;-95
2023/01/06 11:36:31;;;;;;;16.27;2.00;;;10.00;99.90;;;;;;4942717;29;20511;-93
2023/01/06 11:39:00;;;;;;;15.48;2.20;;;10.00;99.90;;;;;;4946288;29;20722;-93
2023/01/06 11:41:36;;;;;;;11.63;1.80;;;10.00;99.90;;;;;;4958900;29;20101;-93
2023/01/06 11:44:12;;;;;;;11.82;2.53;;;10.10;99.90;;;;;;4957249;29;20047;-92
2023/01/06 11:46:44;;;;;;;14.90;2.30;;;10.10;99.90;;;;;;4956448;28;20059;-91
2023/01/06 11:49:19;;;;;;;11.17;1.87;;;10.10;99.90;;;;;;4957193;29;20036;-92
2023/01/06 11:51:47;;;;;;;14.50;1.95;;;10.10;99.90;;;;;;4957365;29;20330;-93
2023/01/06 11:54:41;;;;;;;14.63;2.17;;;10.10;99.90;;;;;;4940282;29;20050;-90
2023/01/06 11:57:18;;;;;;;11.40;1.80;;;10.10;99.90;;;;;;4959383;28;20054;-91
2023/01/06 11:59:56;;;;;;;9.98;1.80;;;10.10;99.90;;;;;;4963416;28;20055;-92
2023/01/06 12:02:31;;;;;;;11.75;2.10;;;10.10;99.90;;;;;;4968192;28;20546;-91
2023/01/06 12:05:00;;;;;;;9.10;2.25;;;10.10;99.90;;;;;;4961815;28;20043;-92
2023/01/06 12:07:39;;;;;;;13.57;2.10;;;10.10;99.90;;;;;;4977614;28;20115;-91
2023/01/06 12:10:15;;;;;;;11.27;2.30;;;10.10;99.90;;;;;;4966988;28;20047;-92
2023/01/06 12:12:41;;;;;;;12.60;2.00;;;10.10;99.90;;;;;;4957405;28;20045;-91
2023/01/06 12:15:15;;;;;;;12.30;1.92;;;10.10;99.90;;;;;;4961194;28;20113;-91
2023/01/06 12:17:49;;;;;;;11.90;2.28;;;10.10;99.90;;;;;;4965530;28;20047;-91
2023/01/06 12:20:43;;;;;;;13.25;2.20;;;10.10;99.90;;;;;;4970567;28;20039;-91
2023/01/06 12:23:27;;;;;;;14.30;1.70;;;10.20;99.90;;;;;;4949409;28;20419;-92
2023/01/06 12:25:57;;;;;;;12.32;2.00;;;10.10;99.90;;;;;;4967832;28;20514;-94
2023/01/06 12:28:37;;;;;;;14.25;2.45;;;10.10;99.90;;;;;;4939866;29;20039;-90
2023/01/06 12:31:14;;;;;;;14.57;2.10;;;10.10;99.90;;;;;;4943046;29;20142;-93
2023/01/06 12:33:44;;;;;;;16.00;2.17;;;10.10;99.90;;;;;;4957965;29;20130;-95
2023/01/06 12:36:27;;;;;;;12.10;2.10;;;10.10;99.90;;;;;;4958021;29;20058;-93
2023/01/06 12:39:00;;;;;;;14.38;1.98;;;10.10;99.90;;;;;;4957607;29;20047;-94
2023/01/06 12:41:44;;;;;;;13.15;2.20;;;10.10;99.90;;;;;;4955928;29;20496;-94
2023/01/06 12:44:21;;;;;;;12.05;1.80;;;10.10;99.90;;;;;;4955843;28;20513;-92
2023/01/06 12:47:05;;;;;;;10.48;1.60;;;10.10;99.90;;;;;;4955892;29;20106;-91
2023/01/06 12:49:33;;;;;;;11.80;2.20;;;10.00;99.90;;;;;;4956383;29;20047;-92
2023/01/06 12:52:08;;;;;;;14.32;1.80;;;10.00;99.90;;;;;;4955583;29;20043;-94
2023/01/06 12:54:34;;;;;;;10.70;1.88;;;10.00;99.90;;;;;;4957007;29;20046;-96
2023/01/06 12:57:18;;;;;;;11.13;1.80;;;10.00;99.90;;;;;;4957075;29;20114;-95
2023/01/06 13:00:02;;;;;;;14.88;1.70;;;10.00;99.90;;;;;;4955714;29;20134;-94
2023/01/06 13:02:36;;;;;;;;;;;10.00;99.90;;;;;;4958007;29;20078;-94
2023/01/06 13:05:23;;;;;;;13.18;2.25;;;10.00;99.90;;;;;;4956990;29;19922;-91
2023/01/06 13:08:33;;;;;;;10.60;2.10;;;10.00;99.90;;;;;;4955801;29;20055;-94
2023/01/06 13:11:10;;;;;;;12.38;2.05;;;10.00;99.90;;;;;;4957517;29;20070;-94
2023/01/06 13:14:10;;;;;;;16.25;2.47;;;10.00;99.90;;;;;;4957322;29;20039;-95
2023/01/06 13:16:54;;;;;;;13.23;2.30;;;10.00;99.90;;;;;;4959736;29;20050;-95
2023/01/06 13:19:48;;;;;;;12.68;2.30;;;9.90;99.90;;;;;;4957530;29;20091;-96
2023/01/06 13:22:20;;;;;;;13.90;2.30;;;10.00;99.90;;;;;;4955807;29;20508;-94